Statesville West, North Carolina
Current Conditions -  °F | °C
As of 4:15 PM on Sunday 23 Nov 2014 (Local Time) from KSVH Reporting Station
Moderate Rain Moderate Rain  
Wind Chill: 39°   Ceiling: 300
Heat Index: 43°   Visibility: 2mi
Dew Point: 42°   Wind: 7mph
Humidity: 98%   Direction: 40°NE
Pressure: 29.92"   Gusts: NA
Location:  35.8306°N, 80.9003°W
Report Text: KSVH 232115Z AUTO 04006KT 2SM RA OVC003 06/06 A2992 RMK AO2 P0001 T00610058
Loading
Personal Weather Stations






























Interactive Weather Map New forecast layout! Learn more

10-Day Weather Forecast

Advertisements
Track Severe Weather on mobile